Time;durP1;ratioP1;P1;durP2;ratioP2;P2;SDS_P1;SDS_P2;PMS_P1;PMS_P2;Temp;Humidity;BMP_temperature;BMP_pressure;BME280_temperature;BME280_humidity;BME280_pressure;Samples;Min_cycle;Max_cycle;Signal;HPM_P1;HPM_P2
2023/07/28 00:02:16;;;;;;;11.43;3.90;;;21.10;99.90;;;;;;10495059;28;20171;-35
2023/07/28 00:07:19;;;;;;;11.65;4.00;;;21.50;99.90;;;;;;10494807;28;20131;-35
2023/07/28 00:12:22;;;;;;;;;;;21.20;99.90;;;;;;10502141;28;20140;-33
2023/07/28 00:17:23;;;;;;;13.80;3.53;;;20.80;99.90;;;;;;10494863;28;19928;-36
2023/07/28 00:22:25;;;;;;;14.85;4.10;;;21.10;99.90;;;;;;10495054;28;20044;-36
2023/07/28 00:27:28;;;;;;;14.90;4.25;;;21.20;99.90;;;;;;10494532;28;20497;-35
2023/07/28 00:32:30;;;;;;;10.57;3.67;;;20.50;99.90;;;;;;10495042;28;20076;-33
2023/07/28 00:37:32;;;;;;;24.55;5.15;;;21.00;99.90;;;;;;10493228;28;20052;-33
2023/07/28 00:42:35;;;;;;;;;;;20.60;99.90;;;;;;10498672;28;20048;-35
2023/07/28 00:47:38;;;;;;;16.08;4.53;;;20.80;99.90;;;;;;10495044;28;19964;-35
2023/07/28 00:52:40;;;;;;;12.40;4.13;;;21.60;99.90;;;;;;10490803;28;20506;-36
2023/07/28 00:57:43;;;;;;;10.00;2.85;;;21.20;99.90;;;;;;10493111;28;20139;-36
2023/07/28 01:02:45;;;;;;;14.00;3.10;;;21.30;99.90;;;;;;10489722;28;20049;-35
2023/07/28 01:07:58;;;;;;;20.58;4.65;;;21.30;99.90;;;;;;10486508;28;20572;-36
2023/07/28 01:13:04;;;;;;;15.10;3.45;;;21.70;99.90;;;;;;10481715;28;20056;-37
2023/07/28 01:18:05;;;;;;;9.30;3.65;;;21.20;99.90;;;;;;10489859;28;20048;-36
2023/07/28 01:23:12;;;;;;;14.35;4.13;;;21.50;99.90;;;;;;10489974;28;20048;-36
2023/07/28 01:28:16;;;;;;;24.40;4.40;;;21.30;99.90;;;;;;10490058;28;20462;-35
2023/07/28 01:33:18;;;;;;;9.82;3.22;;;21.00;99.90;;;;;;10495202;28;20549;-36
2023/07/28 01:38:20;;;;;;;8.43;3.45;;;21.40;99.90;;;;;;10489548;28;20072;-36
2023/07/28 01:43:23;;;;;;;19.35;4.00;;;21.50;99.90;;;;;;10495070;28;20045;-36
2023/07/28 01:48:25;;;;;;;17.00;4.05;;;21.60;99.90;;;;;;10491268;28;20052;-36
2023/07/28 01:53:26;;;;;;;15.02;4.75;;;21.30;99.90;;;;;;10490453;28;20075;-35
2023/07/28 01:58:29;;;;;;;15.52;3.78;;;21.10;99.90;;;;;;10491492;28;20135;-35
2023/07/28 02:03:31;;;;;;;12.93;3.33;;;21.10;99.90;;;;;;10491359;28;20143;-35
2023/07/28 02:08:33;;;;;;;8.85;2.30;;;22.30;99.90;;;;;;10491427;28;20439;-35
2023/07/28 02:13:36;;;;;;;7.03;2.60;;;22.30;99.90;;;;;;10490812;28;20564;-35
2023/07/28 02:18:38;;;;;;;5.68;2.20;;;22.40;99.90;;;;;;10490676;28;20138;-35
2023/07/28 02:23:40;;;;;;;11.80;2.90;;;22.30;99.90;;;;;;10495395;28;20854;-35
2023/07/28 02:28:43;;;;;;;8.55;2.50;;;22.40;99.90;;;;;;10493264;28;20545;-35
2023/07/28 02:33:45;;;;;;;15.77;4.55;;;22.60;99.90;;;;;;10490365;28;20701;-36
2023/07/28 02:38:47;;;;;;;8.25;2.53;;;21.20;99.90;;;;;;10489403;28;20438;-35
2023/07/28 02:43:50;;;;;;;17.73;4.65;;;22.10;99.90;;;;;;10499076;28;20090;-34
2023/07/28 02:48:52;;;;;;;4.18;2.10;;;21.90;99.90;;;;;;10489364;28;20051;-35
2023/07/28 02:53:54;;;;;;;11.18;3.00;;;22.20;99.90;;;;;;10489749;28;20072;-35
2023/07/28 03:15:28;;;;;;;17.05;4.00;;;21.70;99.90;;;;;;10486973;27;1979609;-35
2023/07/28 03:20:31;;;;;;;9.10;2.95;;;21.70;99.90;;;;;;10565698;28;20153;-34
2023/07/28 03:25:33;;;;;;;13.63;4.22;;;22.10;99.90;;;;;;10543053;28;20073;-35
2023/07/28 03:30:36;;;;;;;;;;;22.20;99.90;;;;;;10556097;28;20517;-36
2023/07/28 03:35:38;;;;;;;9.48;3.10;;;22.00;99.90;;;;;;10547079;28;20579;-35
2023/07/28 03:40:39;;;;;;;6.63;2.95;;;21.70;99.90;;;;;;10534414;28;20040;-35
2023/07/28 03:45:45;;;;;;;9.60;3.05;;;21.90;99.90;;;;;;10550392;28;20766;-35
2023/07/28 03:50:47;;;;;;;11.70;3.85;;;22.30;99.90;;;;;;10559400;28;20075;-35
2023/07/28 03:55:49;;;;;;;;;;;22.00;99.90;;;;;;10556576;28;20090;-35
2023/07/28 04:00:54;;;;;;;3.65;1.90;;;21.60;99.90;;;;;;10549562;28;19935;-35
2023/07/28 04:05:56;;;;;;;17.48;2.92;;;22.50;99.90;;;;;;10545878;28;20181;-35
2023/07/28 04:10:58;;;;;;;12.68;4.10;;;22.70;99.90;;;;;;10570983;28;20540;-35
2023/07/28 04:16:01;;;;;;;13.88;4.05;;;21.90;99.90;;;;;;10549845;28;20140;-34
2023/07/28 04:21:05;;;;;;;11.30;3.95;;;21.60;99.90;;;;;;10548579;28;20496;-35
2023/07/28 04:26:07;;;;;;;10.48;3.47;;;21.90;99.90;;;;;;10512154;28;20531;-35
2023/07/28 04:31:10;;;;;;;;;;;22.10;99.90;;;;;;10519834;28;20420;-36
2023/07/28 04:36:12;;;;;;;7.03;2.08;;;22.20;99.90;;;;;;10516010;28;20019;-36
2023/07/28 04:41:13;;;;;;;6.47;3.15;;;22.40;99.90;;;;;;10510693;28;20057;-35
2023/07/28 04:46:17;;;;;;;10.10;3.50;;;21.80;99.90;;;;;;10515937;28;20051;-36
2023/07/28 04:51:18;;;;;;;13.18;3.65;;;22.30;99.90;;;;;;10524329;28;20101;-35
2023/07/28 04:56:20;;;;;;;8.68;3.50;;;22.40;99.90;;;;;;10523153;28;20105;-36
2023/07/28 05:01:23;;;;;;;10.23;4.18;;;22.30;99.90;;;;;;10524225;28;20075;-35
2023/07/28 05:06:25;;;;;;;15.48;3.40;;;22.20;99.90;;;;;;10517964;28;20082;-35
2023/07/28 05:11:27;;;;;;;10.48;2.97;;;22.00;99.90;;;;;;10538078;28;20117;-35
2023/07/28 05:16:30;;;;;;;11.90;3.17;;;22.10;99.90;;;;;;10519250;28;20121;-35
2023/07/28 05:21:32;;;;;;;7.95;3.20;;;21.80;99.90;;;;;;10520330;28;20045;-36
2023/07/28 05:26:34;;;;;;;10.70;2.83;;;21.80;99.90;;;;;;10502407;28;20064;-35
2023/07/28 05:31:37;;;;;;;8.90;2.92;;;21.80;99.90;;;;;;10528134;28;20150;-35
2023/07/28 05:36:41;;;;;;;9.23;4.07;;;22.10;99.90;;;;;;10502474;28;20127;-35
2023/07/28 05:41:42;;;;;;;8.07;2.65;;;22.00;99.90;;;;;;10499007;28;20074;-35
2023/07/28 05:46:48;;;;;;;6.13;2.67;;;22.00;99.90;;;;;;10522295;28;20050;-35
2023/07/28 05:51:53;;;;;;;8.98;2.97;;;21.60;99.90;;;;;;10515878;28;20412;-31
2023/07/28 05:56:54;;;;;;;9.45;3.50;;;22.30;99.90;;;;;;10508172;28;20044;-34
2023/07/28 06:01:58;;;;;;;7.05;3.88;;;22.20;99.90;;;;;;10512334;28;20052;-36
2023/07/28 06:06:59;;;;;;;6.88;4.03;;;21.40;99.90;;;;;;10507839;28;20044;-36
2023/07/28 06:12:01;;;;;;;8.20;3.78;;;21.80;99.90;;;;;;10508790;28;20118;-34
2023/07/28 06:17:05;;;;;;;6.63;3.42;;;21.60;99.90;;;;;;10507276;28;20461;-36
2023/07/28 06:22:07;;;;;;;12.82;3.85;;;21.50;99.90;;;;;;10513739;28;20068;-34
2023/07/28 06:27:10;;;;;;;11.18;3.55;;;22.10;99.90;;;;;;10512883;28;20048;-34
2023/07/28 06:32:15;;;;;;;8.52;4.10;;;21.10;99.90;;;;;;10508724;28;20110;-33
2023/07/28 06:37:17;;;;;;;10.98;3.30;;;21.10;99.90;;;;;;10499388;28;20462;-35
2023/07/28 06:42:23;;;;;;;9.88;2.60;;;21.50;99.90;;;;;;10506056;28;20059;-31
2023/07/28 06:47:26;;;;;;;10.75;3.83;;;21.30;99.90;;;;;;10510468;28;20047;-36
2023/07/28 06:52:28;;;;;;;12.18;4.22;;;21.10;99.90;;;;;;10496787;28;20072;-35
2023/07/28 06:57:31;;;;;;;9.90;4.05;;;21.10;99.90;;;;;;10514338;28;20709;-34
2023/07/28 07:02:34;;;;;;;9.80;3.65;;;20.70;99.90;;;;;;10518002;28;20526;-35
2023/07/28 07:07:36;;;;;;;12.43;4.18;;;21.00;99.90;;;;;;10510588;28;20526;-35
2023/07/28 07:12:38;;;;;;;7.55;3.45;;;21.00;99.90;;;;;;10523208;28;20135;-35
2023/07/28 07:17:41;;;;;;;8.57;2.80;;;21.80;99.90;;;;;;10519047;28;20044;-44
2023/07/28 07:22:43;;;;;;;6.05;2.55;;;22.80;99.90;;;;;;10490585;28;20062;-39
2023/07/28 07:27:45;;;;;;;3.58;2.33;;;22.20;99.90;;;;;;10514159;28;20481;-44
2023/07/28 07:32:48;;;;;;;11.73;2.97;;;22.10;99.90;;;;;;10505348;28;20052;-45
2023/07/28 07:37:50;;;;;;;5.28;2.78;;;22.20;99.90;;;;;;10519630;28;20425;-42
2023/07/28 07:42:51;;;;;;;7.88;3.38;;;22.80;99.90;;;;;;10512528;28;20045;-35
2023/07/28 07:47:55;;;;;;;5.40;2.33;;;22.30;99.90;;;;;;10513330;28;20044;-35
2023/07/28 07:52:56;;;;;;;7.28;2.35;;;23.10;99.90;;;;;;10502647;28;20431;-36
2023/07/28 07:57:58;;;;;;;5.03;2.03;;;22.80;99.90;;;;;;10514830;28;20567;-36
2023/07/28 08:03:01;;;;;;;14.68;4.00;;;23.00;99.90;;;;;;10531171;28;20568;-38
2023/07/28 08:08:05;;;;;;;9.63;3.78;;;23.00;99.90;;;;;;10513592;28;20096;-37
2023/07/28 08:13:06;;;;;;;4.93;3.20;;;22.60;99.90;;;;;;10531483;28;20647;-37
2023/07/28 08:18:10;;;;;;;5.93;2.25;;;23.00;99.90;;;;;;10527060;28;20470;-38
2023/07/28 08:23:11;;;;;;;8.60;3.05;;;23.40;99.90;;;;;;10525524;28;20056;-37
2023/07/28 08:28:13;;;;;;;4.45;2.50;;;22.50;99.90;;;;;;10522262;28;20189;-36
2023/07/28 08:33:16;;;;;;;5.45;2.38;;;22.30;99.90;;;;;;10520432;28;20079;-37
2023/07/28 08:38:18;;;;;;;7.60;4.38;;;23.20;99.90;;;;;;10512844;28;20071;-38
2023/07/28 08:43:20;;;;;;;10.18;3.22;;;22.80;99.90;;;;;;10515605;28;20147;-37
2023/07/28 08:48:23;;;;;;;7.13;3.15;;;22.30;99.90;;;;;;10529862;28;20068;-37
2023/07/28 08:53:25;;;;;;;6.88;2.97;;;22.30;99.90;;;;;;10528496;28;20101;-34
2023/07/28 08:58:27;;;;;;;;;;;22.20;99.90;;;;;;10519785;28;20090;-41
2023/07/28 09:09:33;;;;;;;9.18;3.05;;;23.20;99.90;;;;;;10518106;28;20027;-34
2023/07/28 09:14:37;;;;;;;8.65;3.33;;;23.70;99.90;;;;;;10526563;28;20477;-35
2023/07/28 09:19:52;;;;;;;7.50;2.67;;;23.50;99.90;;;;;;10501320;28;20056;-37
2023/07/28 09:24:55;;;;;;;8.40;3.70;;;23.70;99.90;;;;;;10514766;28;20048;-39
2023/07/28 09:29:57;;;;;;;12.32;3.92;;;22.50;99.90;;;;;;10523844;28;20044;-33
2023/07/28 09:35:09;;;;;;;;;;;22.50;99.90;;;;;;10522781;28;20804;-35
2023/07/28 09:40:14;;;;;;;11.77;2.92;;;23.40;99.90;;;;;;10522068;28;20295;-36
2023/07/28 09:45:17;;;;;;;10.32;3.47;;;23.20;99.90;;;;;;10512767;28;20159;-35
2023/07/28 09:50:23;;;;;;;14.80;3.90;;;22.80;99.90;;;;;;10508730;28;20540;-39
2023/07/28 09:55:26;;;;;;;7.25;2.53;;;22.50;99.90;;;;;;10497728;28;20499;-40
2023/07/28 10:00:29;;;;;;;15.57;3.40;;;23.20;99.90;;;;;;10505206;28;20079;-41
2023/07/28 10:05:31;;;;;;;8.07;2.72;;;23.50;99.90;;;;;;10511658;28;20067;-34
2023/07/28 10:10:35;;;;;;;5.10;2.58;;;23.50;99.90;;;;;;10509137;28;20071;-38
2023/07/28 10:15:38;;;;;;;9.60;2.53;;;23.10;99.90;;;;;;10522414;28;20156;-34
2023/07/28 10:20:43;;;;;;;6.90;2.80;;;23.00;99.90;;;;;;10519497;28;20093;-39
2023/07/28 10:25:47;;;;;;;8.90;2.65;;;23.20;99.90;;;;;;10513419;28;20044;-39
2023/07/28 10:30:53;;;;;;;6.70;2.67;;;23.40;99.90;;;;;;10515176;28;20072;-36
2023/07/28 10:35:55;;;;;;;7.72;2.75;;;23.90;99.90;;;;;;10523231;28;20051;-41
2023/07/28 10:41:07;;;;;;;;;;;23.30;99.90;;;;;;10516536;28;20752;-35
2023/07/28 10:46:10;;;;;;;;;;;23.40;99.90;;;;;;10506928;28;19924;-37
2023/07/28 10:51:12;;;;;;;11.68;2.63;;;23.50;99.90;;;;;;10510345;28;19921;-39
2023/07/28 10:56:15;;;;;;;11.15;2.67;;;23.40;99.90;;;;;;10507699;28;20163;-34
2023/07/28 11:01:17;;;;;;;3.33;2.17;;;23.70;99.90;;;;;;10515567;28;20060;-41
2023/07/28 11:06:20;;;;;;;7.47;2.45;;;23.00;99.90;;;;;;10506939;28;20196;-39
2023/07/28 11:11:24;;;;;;;3.78;2.03;;;23.30;99.90;;;;;;10520948;28;20093;-42
2023/07/28 11:16:26;;;;;;;5.50;3.08;;;23.60;99.90;;;;;;10513331;28;20135;-33
2023/07/28 11:21:28;;;;;;;3.97;2.65;;;23.00;99.90;;;;;;10525627;28;20182;-37
2023/07/28 11:26:31;;;;;;;;;;;23.30;99.90;;;;;;10515103;28;20397;-35
2023/07/28 11:31:34;;;;;;;4.07;2.30;;;23.00;99.90;;;;;;10515308;28;19993;-36
2023/07/28 11:36:37;;;;;;;9.10;3.90;;;23.20;99.90;;;;;;10518341;28;20134;-37
2023/07/28 11:41:44;;;;;;;9.00;3.05;;;23.40;99.90;;;;;;10521136;28;20079;-40
2023/07/28 11:46:46;;;;;;;10.50;2.72;;;22.60;99.90;;;;;;10522609;28;20054;-43
2023/07/28 11:51:50;;;;;;;7.05;3.50;;;23.20;99.90;;;;;;10516336;28;20123;-41
2023/07/28 11:56:58;;;;;;;10.20;3.67;;;23.20;99.90;;;;;;10507678;28;20056;-41
2023/07/28 12:02:02;;;;;;;6.38;2.60;;;23.20;99.90;;;;;;10522725;28;20691;-39
2023/07/28 12:07:12;;;;;;;5.13;2.70;;;23.00;99.90;;;;;;10521418;28;20090;-39
2023/07/28 12:12:15;;;;;;;3.25;2.05;;;23.30;99.90;;;;;;10528657;28;20063;-37
2023/07/28 12:17:18;;;;;;;8.70;2.60;;;22.90;99.90;;;;;;10520188;28;20036;-38
2023/07/28 12:22:20;;;;;;;7.00;2.28;;;23.40;99.90;;;;;;10542489;28;20039;-34
2023/07/28 12:27:24;;;;;;;6.30;2.80;;;22.80;99.90;;;;;;10525282;28;20105;-34
2023/07/28 12:32:26;;;;;;;3.58;1.85;;;22.80;99.90;;;;;;10525535;28;20040;-36
2023/07/28 12:37:28;;;;;;;12.38;2.40;;;23.10;99.90;;;;;;10513778;28;20101;-38
2023/07/28 12:42:31;;;;;;;4.78;1.92;;;23.40;99.90;;;;;;10515075;28;20075;-33
2023/07/28 12:47:34;;;;;;;10.98;2.30;;;23.50;99.90;;;;;;10488001;28;20733;-34
2023/07/28 12:52:36;;;;;;;2.47;1.30;;;23.30;99.90;;;;;;10509516;28;20118;-33
2023/07/28 12:57:39;;;;;;;;;;;23.50;99.90;;;;;;10533805;28;20044;-38
2023/07/28 13:02:42;;;;;;;3.38;1.10;;;23.40;99.90;;;;;;10516028;28;20325;-36
2023/07/28 13:07:44;;;;;;;2.65;0.90;;;23.30;99.90;;;;;;10511395;28;20055;-42
2023/07/28 13:12:47;;;;;;;;;;;23.90;99.90;;;;;;10521486;28;20123;-39
2023/07/28 13:17:48;;;;;;;1.15;0.82;;;23.40;99.90;;;;;;10517732;28;20530;-36
2023/07/28 13:22:50;;;;;;;1.05;0.70;;;23.40;99.90;;;;;;10519434;28;20044;-35
2023/07/28 13:27:55;;;;;;;5.32;1.33;;;23.40;99.90;;;;;;10521781;28;20044;-36
2023/07/28 13:32:57;;;;;;;1.00;0.90;;;23.40;99.90;;;;;;10504025;28;20044;-42
2023/07/28 13:37:58;;;;;;;;;;;24.00;99.90;;;;;;10520624;28;20071;-34
2023/07/28 13:43:01;;;;;;;2.90;1.87;;;24.10;99.90;;;;;;10516626;28;19920;-36
2023/07/28 13:48:04;;;;;;;1.73;1.30;;;23.50;99.90;;;;;;10515626;28;20474;-34
2023/07/28 13:53:06;;;;;;;6.18;1.30;;;23.70;99.90;;;;;;10511505;28;20132;-33
2023/07/28 13:58:10;;;;;;;2.50;1.65;;;23.70;99.90;;;;;;10521458;28;20665;-36
2023/07/28 14:03:12;;;;;;;3.22;1.40;;;23.90;99.90;;;;;;10522635;28;20062;-36
2023/07/28 14:08:14;;;;;;;4.10;1.73;;;24.00;99.90;;;;;;10507503;28;20041;-37
2023/07/28 14:13:17;;;;;;;3.38;3.08;;;23.30;99.90;;;;;;10533150;28;20075;-38
2023/07/28 14:18:19;;;;;;;3.88;2.72;;;23.40;99.90;;;;;;10515557;28;20162;-36
2023/07/28 14:23:22;;;;;;;4.85;2.63;;;23.60;99.90;;;;;;10501734;28;20075;-34
2023/07/28 14:28:26;;;;;;;3.95;2.75;;;23.50;99.90;;;;;;10497741;28;20045;-35
2023/07/28 14:33:28;;;;;;;6.18;4.20;;;24.10;99.90;;;;;;10519548;28;20109;-36
2023/07/28 14:38:29;;;;;;;;;;;23.80;99.90;;;;;;10526979;28;20119;-34
2023/07/28 14:43:32;;;;;;;6.07;2.63;;;24.20;99.90;;;;;;10524474;28;20358;-33
2023/07/28 14:48:35;;;;;;;8.82;2.80;;;24.50;98.40;;;;;;10510461;28;20589;-40
2023/07/28 14:53:39;;;;;;;4.97;2.60;;;25.00;96.90;;;;;;10507186;28;20474;-38
2023/07/28 14:58:43;;;;;;;4.07;2.30;;;24.50;97.50;;;;;;10512926;28;20138;-39
2023/07/28 15:03:45;;;;;;;6.00;2.22;;;24.70;96.10;;;;;;10514188;28;20128;-39
2023/07/28 15:08:47;;;;;;;;;;;24.80;96.40;;;;;;10513788;28;20118;-38
2023/07/28 15:13:50;;;;;;;2.20;1.30;;;24.60;96.90;;;;;;10520536;28;19928;-40
2023/07/28 15:18:55;;;;;;;2.88;1.80;;;23.70;98.30;;;;;;10521481;28;20067;-36
2023/07/28 15:23:57;;;;;;;3.80;1.50;;;24.40;96.30;;;;;;10514212;28;20059;-32
2023/07/28 15:29:01;;;;;;;3.35;2.45;;;24.80;95.20;;;;;;10509971;28;20455;-35
2023/07/28 15:34:02;;;;;;;1.92;1.27;;;24.90;95.10;;;;;;10516316;28;20117;-35
2023/07/28 15:39:04;;;;;;;;;;;24.50;97.00;;;;;;10516927;28;20048;-35
2023/07/28 15:44:07;;;;;;;11.48;3.72;;;24.30;97.70;;;;;;10511928;28;19919;-39
2023/07/28 15:49:09;;;;;;;6.90;1.20;;;25.10;95.30;;;;;;10522473;28;20075;-39
2023/07/28 15:54:12;;;;;;;2.08;0.90;;;25.50;93.00;;;;;;10520031;28;20849;-37
2023/07/28 15:59:16;;;;;;;1.20;1.00;;;26.00;91.80;;;;;;10514529;28;20102;-43
2023/07/28 16:04:17;;;;;;;2.58;0.90;;;26.00;91.20;;;;;;10518776;28;20044;-33
2023/07/28 16:09:19;;;;;;;6.63;0.70;;;26.10;89.80;;;;;;10525558;28;20063;-37
2023/07/28 16:14:23;;;;;;;3.00;0.80;;;26.50;88.00;;;;;;10514373;28;20071;-37
2023/07/28 16:19:25;;;;;;;3.83;0.60;;;26.10;87.50;;;;;;10517758;28;20173;-41
2023/07/28 16:24:27;;;;;;;4.18;0.98;;;26.10;89.90;;;;;;10523797;28;20658;-34
2023/07/28 16:29:30;;;;;;;2.13;0.77;;;26.10;90.50;;;;;;10531728;28;20135;-41
2023/07/28 16:34:32;;;;;;;1.67;0.80;;;26.20;90.10;;;;;;10519811;28;20079;-34
2023/07/28 16:39:34;;;;;;;1.33;0.75;;;26.30;89.60;;;;;;10522317;28;20130;-37
2023/07/28 16:44:38;;;;;;;3.90;0.50;;;26.60;86.80;;;;;;10538720;28;20472;-35
2023/07/28 16:49:40;;;;;;;1.90;0.82;;;26.70;84.00;;;;;;10514395;28;20157;-36
2023/07/28 16:54:43;;;;;;;1.90;0.70;;;26.70;81.50;;;;;;10532085;28;20059;-37
2023/07/28 16:59:46;;;;;;;2.15;0.60;;;26.50;85.30;;;;;;10531149;28;20052;-35
2023/07/28 17:04:48;;;;;;;2.05;0.70;;;26.40;84.60;;;;;;10513771;28;20079;-34
2023/07/28 17:09:50;;;;;;;0.88;0.45;;;26.80;85.10;;;;;;10517483;28;20098;-39
2023/07/28 17:14:53;;;;;;;2.70;0.80;;;27.10;81.70;;;;;;10512374;28;20067;-38
2023/07/28 17:19:55;;;;;;;2.83;0.93;;;27.20;82.00;;;;;;10522695;28;20040;-44
2023/07/28 17:24:57;;;;;;;1.20;0.50;;;27.20;82.60;;;;;;10507027;28;20048;-34
2023/07/28 17:30:00;;;;;;;1.83;0.57;;;27.60;78.80;;;;;;10524709;28;20722;-38
2023/07/28 17:35:02;;;;;;;4.38;0.70;;;27.70;78.50;;;;;;10528638;28;20055;-36
2023/07/28 17:40:05;;;;;;;3.20;1.38;;;27.50;79.20;;;;;;10512733;28;20079;-35
2023/07/28 17:45:09;;;;;;;1.95;0.50;;;27.30;80.60;;;;;;10522178;28;20593;-39
2023/07/28 17:50:12;;;;;;;3.85;0.60;;;26.80;86.10;;;;;;10521772;28;20071;-38
2023/07/28 17:55:14;;;;;;;1.55;0.65;;;26.40;85.60;;;;;;10528697;28;20055;-35
2023/07/28 18:00:18;;;;;;;2.25;0.55;;;26.40;88.10;;;;;;10502899;28;20071;-33
2023/07/28 18:05:19;;;;;;;0.88;0.60;;;26.80;85.00;;;;;;10512847;28;20047;-38
2023/07/28 18:10:22;;;;;;;0.95;0.70;;;26.50;86.30;;;;;;10504400;28;20055;-35
2023/07/28 18:15:26;;;;;;;3.70;1.17;;;26.70;85.90;;;;;;10519966;28;20068;-36
2023/07/28 18:20:28;;;;;;;1.88;0.43;;;26.70;82.00;;;;;;10520519;28;20078;-35
2023/07/28 18:25:30;;;;;;;3.13;0.68;;;26.30;86.10;;;;;;10537176;28;20131;-39
2023/07/28 18:30:33;;;;;;;0.75;0.40;;;25.70;90.90;;;;;;10518590;28;20519;-35
2023/07/28 18:35:35;;;;;;;2.28;0.50;;;25.70;90.80;;;;;;10521568;28;20044;-38
2023/07/28 18:40:37;;;;;;;1.17;0.40;;;26.10;88.90;;;;;;10527143;28;20040;-36
2023/07/28 18:45:40;;;;;;;;;;;25.50;90.10;;;;;;10507190;28;20067;-40
2023/07/28 18:50:42;;;;;;;1.25;0.47;;;25.60;91.40;;;;;;10515967;28;20458;-35
2023/07/28 18:55:44;;;;;;;3.53;0.80;;;25.70;90.00;;;;;;10512823;28;20109;-40
2023/07/28 19:00:47;;;;;;;;;;;24.60;93.30;;;;;;10517183;28;20169;-31
2023/07/28 19:05:49;;;;;;;2.03;0.60;;;24.50;94.90;;;;;;10518122;28;19920;-41
2023/07/28 19:10:50;;;;;;;6.95;0.68;;;25.50;92.10;;;;;;10509544;28;20083;-39
2023/07/28 19:15:54;;;;;;;;;;;25.20;93.00;;;;;;10513448;28;20109;-35
2023/07/28 19:20:55;;;;;;;3.67;0.70;;;25.70;91.30;;;;;;10506363;28;20397;-36
2023/07/28 19:25:57;;;;;;;2.85;0.73;;;26.50;86.40;;;;;;10503483;28;20051;-40
2023/07/28 19:31:04;;;;;;;6.88;1.05;;;26.40;87.00;;;;;;10516129;28;20474;-42
2023/07/28 19:36:06;;;;;;;9.40;1.30;;;26.10;88.90;;;;;;10524372;28;20048;-37
2023/07/28 19:41:09;;;;;;;11.30;1.42;;;26.30;87.80;;;;;;10514660;28;20101;-38
2023/07/28 19:46:13;;;;;;;4.25;0.93;;;26.30;86.50;;;;;;10509511;28;20253;-37
2023/07/28 19:51:15;;;;;;;9.68;1.10;;;26.40;85.70;;;;;;10506198;28;20144;-35
2023/07/28 19:56:16;;;;;;;5.35;1.05;;;26.50;84.90;;;;;;10525992;28;20123;-37
2023/07/28 20:01:21;;;;;;;3.88;1.05;;;26.60;83.10;;;;;;10515886;28;20098;-37
2023/07/28 20:06:24;;;;;;;7.75;1.63;;;26.50;83.80;;;;;;10522657;28;20044;-37
2023/07/28 20:11:26;;;;;;;7.90;1.27;;;26.20;85.80;;;;;;10525058;28;20060;-36
2023/07/28 20:16:29;;;;;;;9.48;2.05;;;26.50;83.80;;;;;;10526790;28;20048;-34
2023/07/28 20:21:31;;;;;;;7.30;1.08;;;26.10;86.70;;;;;;10511550;28;20052;-37
2023/07/28 20:26:32;;;;;;;7.32;1.45;;;25.90;87.70;;;;;;10519253;28;20071;-34
2023/07/28 20:31:36;;;;;;;7.35;1.63;;;26.20;86.40;;;;;;10531936;28;20479;-43
2023/07/28 20:36:37;;;;;;;4.07;1.13;;;25.90;88.10;;;;;;10521697;28;20126;-34
2023/07/28 20:41:39;;;;;;;9.25;1.52;;;26.20;85.90;;;;;;10538309;28;20483;-37
2023/07/28 20:46:42;;;;;;;6.80;1.00;;;26.30;84.60;;;;;;10523001;28;20068;-41
2023/07/28 20:51:44;;;;;;;10.45;0.90;;;26.60;82.80;;;;;;10519236;28;20063;-35
2023/07/28 20:56:49;;;;;;;11.43;1.50;;;25.90;87.70;;;;;;10516321;28;20438;-34
2023/07/28 21:01:52;;;;;;;4.97;1.17;;;25.80;87.40;;;;;;10519003;28;20076;-34
2023/07/28 21:06:54;;;;;;;6.38;1.10;;;24.50;93.00;;;;;;10520295;28;20086;-36
2023/07/28 21:11:56;;;;;;;6.88;1.13;;;24.60;91.80;;;;;;10526221;28;20127;-39
2023/07/28 21:17:01;;;;;;;3.08;0.63;;;24.50;93.80;;;;;;10525226;28;20109;-35
2023/07/28 21:22:03;;;;;;;12.52;1.35;;;24.30;93.60;;;;;;10519086;28;20079;-34
2023/07/28 21:27:05;;;;;;;2.47;1.25;;;25.00;92.10;;;;;;10510185;28;20086;-35
2023/07/28 21:32:09;;;;;;;4.68;1.48;;;25.30;90.30;;;;;;10518329;28;20139;-36
2023/07/28 21:37:11;;;;;;;2.13;0.65;;;25.10;90.40;;;;;;10518996;28;20580;-40
2023/07/28 21:42:13;;;;;;;4.97;0.95;;;25.40;88.20;;;;;;10515691;28;20109;-39
2023/07/28 21:47:16;;;;;;;1.65;0.52;;;25.60;88.30;;;;;;10499531;28;20062;-42
2023/07/28 21:52:18;;;;;;;2.85;0.80;;;25.50;88.40;;;;;;10523590;28;20159;-37
2023/07/28 21:57:20;;;;;;;1.67;0.50;;;25.20;88.50;;;;;;10511574;28;20052;-33
2023/07/28 22:02:23;;;;;;;2.65;0.70;;;24.70;91.20;;;;;;10513922;28;20060;-34
2023/07/28 22:07:25;;;;;;;3.58;0.70;;;25.10;90.60;;;;;;10512692;28;20133;-38
2023/07/28 22:12:27;;;;;;;1.38;0.70;;;25.20;89.50;;;;;;10523806;28;20604;-35
2023/07/28 22:17:30;;;;;;;;;;;24.60;91.30;;;;;;10508259;28;20539;-38
2023/07/28 22:22:33;;;;;;;2.45;0.75;;;24.60;90.10;;;;;;10526467;28;20012;-34
2023/07/28 22:27:35;;;;;;;2.83;0.85;;;23.60;94.70;;;;;;10514030;28;20041;-38
2023/07/28 22:32:38;;;;;;;4.32;0.40;;;25.40;88.60;;;;;;10510789;28;20083;-33
2023/07/28 22:37:40;;;;;;;3.05;0.85;;;25.60;86.20;;;;;;10507911;28;20652;-39
2023/07/28 22:42:42;;;;;;;6.45;0.70;;;25.60;86.30;;;;;;10507914;28;20095;-35
2023/07/28 22:47:45;;;;;;;3.13;0.77;;;25.90;83.10;;;;;;10530066;28;20394;-33
2023/07/28 22:52:47;;;;;;;4.10;0.63;;;25.70;83.80;;;;;;10513486;28;20041;-30
2023/07/28 22:57:49;;;;;;;3.15;0.70;;;25.50;85.30;;;;;;10523130;28;20052;-33
2023/07/28 23:02:52;;;;;;;3.60;1.10;;;25.70;85.40;;;;;;10510657;28;20060;-34
2023/07/28 23:07:54;;;;;;;3.65;1.00;;;25.20;85.40;;;;;;10513559;28;20625;-39
2023/07/28 23:12:56;;;;;;;2.92;1.17;;;24.30;89.20;;;;;;10512392;28;20075;-36
2023/07/28 23:18:02;;;;;;;;;;;24.00;90.50;;;;;;10514300;28;20083;-36
2023/07/28 23:23:04;;;;;;;2.92;1.13;;;23.90;93.10;;;;;;10525234;28;19971;-34
2023/07/28 23:28:06;;;;;;;3.08;0.70;;;23.50;92.80;;;;;;10512303;28;20044;-34
2023/07/28 23:33:09;;;;;;;3.60;1.30;;;23.30;95.80;;;;;;10518285;28;20166;-36
2023/07/28 23:38:11;;;;;;;6.95;2.20;;;23.20;94.40;;;;;;10521419;28;20586;-40
2023/07/28 23:43:12;;;;;;;;;;;23.30;94.60;;;;;;10528696;28;20614;-33
2023/07/28 23:48:16;;;;;;;5.63;1.00;;;24.70;90.80;;;;;;10528920;28;19928;-41
2023/07/28 23:53:17;;;;;;;1.00;0.70;;;24.40;88.90;;;;;;10523897;28;20891;-33
2023/07/28 23:58:20;;;;;;;;;;;24.30;91.30;;;;;;10538348;28;20079;-37
